createdAt,value
2022-10-17T00:00:00.121Z,13.5
2022-10-17T00:05:00.143Z,15
2022-10-17T00:10:00.148Z,12.3
2022-10-17T00:15:00.107Z,14.3
2022-10-17T00:20:00.115Z,14.3
2022-10-17T00:25:00.123Z,19.5
2022-10-17T00:30:00.142Z,8.2
2022-10-17T00:35:00.115Z,12.5
2022-10-17T00:40:00.107Z,10.8
2022-10-17T00:45:00.114Z,9.5
2022-10-17T00:55:00.113Z,10.7
2022-10-17T01:00:00.161Z,14
2022-10-17T01:05:00.132Z,11.3
2022-10-17T01:10:00.122Z,13.1
2022-10-17T01:15:00.121Z,12.4
2022-10-17T01:20:00.132Z,12.4
2022-10-17T01:25:00.106Z,15.9
2022-10-17T01:30:00.134Z,9.9
2022-10-17T01:35:00.110Z,11.1
2022-10-17T01:40:00.155Z,14.1
2022-10-17T01:45:00.125Z,17.8
2022-10-17T01:50:00.125Z,17.8
2022-10-17T01:55:00.141Z,12
2022-10-17T02:00:00.112Z,8.5
2022-10-17T02:10:00.130Z,11.1
2022-10-17T02:15:00.169Z,9.9
2022-10-17T02:20:00.152Z,9.9
2022-10-17T02:25:00.115Z,12.7
2022-10-17T02:30:00.123Z,10.5
2022-10-17T02:35:00.118Z,13.5
2022-10-17T02:40:00.160Z,12.2
2022-10-17T02:45:00.117Z,7.9
2022-10-17T02:50:00.137Z,7.9
2022-10-17T02:55:00.133Z,12.5
2022-10-17T03:00:00.109Z,13.6
2022-10-17T03:05:00.121Z,10.1
2022-10-17T03:10:00.185Z,14.6
2022-10-17T03:15:00.110Z,9.6
2022-10-17T03:20:00.103Z,9.6
2022-10-17T03:25:00.127Z,12.6
2022-10-17T03:30:00.108Z,16.2
2022-10-17T03:35:00.159Z,10.3
2022-10-17T03:40:00.113Z,14.1
2022-10-17T03:45:00.148Z,10
2022-10-17T03:50:00.157Z,10
2022-10-17T03:55:00.128Z,8.1
2022-10-17T04:00:00.119Z,12.5
2022-10-17T04:05:00.108Z,8.4
2022-10-17T04:10:00.135Z,8.2
2022-10-17T04:15:00.112Z,11.7
2022-10-17T04:20:00.114Z,11.7
2022-10-17T04:25:00.345Z,8.8
2022-10-17T04:30:00.110Z,8.9
2022-10-17T04:35:00.106Z,11.1
2022-10-17T04:40:00.174Z,9.6
2022-10-17T04:45:00.103Z,8.3
2022-10-17T04:50:00.150Z,8.3
2022-10-17T04:55:00.135Z,11.1
2022-10-17T05:00:00.155Z,7.6
2022-10-17T05:05:00.117Z,8.2
2022-10-17T05:10:00.134Z,8.4
2022-10-17T05:15:00.123Z,8.3
2022-10-17T05:20:00.120Z,8.3
2022-10-17T05:25:00.122Z,9.3
2022-10-17T05:30:00.106Z,6.6
2022-10-17T05:35:00.108Z,10.1
2022-10-17T05:40:00.126Z,10.3
2022-10-17T05:45:00.115Z,9.5
2022-10-17T05:50:00.123Z,9.5
2022-10-17T05:55:00.115Z,9.6
2022-10-17T06:00:00.116Z,14.1
2022-10-17T06:05:00.122Z,13.1
2022-10-17T06:10:00.150Z,17.6
2022-10-17T06:15:00.146Z,8.5
2022-10-17T06:20:00.132Z,8.5
2022-10-17T06:25:00.157Z,10.9
2022-10-17T06:30:00.104Z,11.4
2022-10-17T06:35:00.107Z,9
2022-10-17T06:40:00.113Z,11.4
2022-10-17T06:45:00.104Z,9.4
2022-10-17T06:50:00.108Z,9.4
2022-10-17T06:55:00.233Z,12.4
2022-10-17T07:00:00.105Z,9.4
2022-10-17T07:05:00.112Z,8.9
2022-10-17T07:10:00.129Z,11.3
2022-10-17T07:15:00.096Z,6.6
2022-10-17T07:20:00.176Z,6.6
2022-10-17T07:25:00.378Z,8.4
2022-10-17T07:30:00.119Z,8.9
2022-10-17T07:35:00.088Z,8.6
2022-10-17T07:40:00.138Z,8.6
2022-10-17T07:45:00.114Z,6.2
2022-10-17T07:50:00.121Z,6.2
2022-10-17T07:55:00.105Z,6.8
2022-10-17T08:00:00.136Z,6.3
2022-10-17T08:05:00.091Z,7.1
2022-10-17T08:10:00.216Z,8.6
2022-10-17T08:15:00.102Z,6.3
2022-10-17T08:20:00.115Z,6.3
2022-10-17T08:25:00.130Z,5.9
2022-10-17T08:30:00.134Z,8.8
2022-10-17T08:35:00.104Z,7.6
2022-10-17T08:40:00.169Z,3.8
2022-10-17T08:45:00.117Z,6.4
2022-10-17T08:50:00.123Z,6.4
2022-10-17T08:55:00.132Z,5.7
2022-10-17T09:00:00.149Z,5.5
2022-10-17T09:05:00.128Z,4.5
2022-10-17T09:10:00.142Z,5.6
2022-10-17T09:15:00.134Z,6
2022-10-17T09:20:00.122Z,6
2022-10-17T09:25:00.125Z,8.4
2022-10-17T09:30:00.122Z,6.7
2022-10-17T09:35:00.128Z,4.3
2022-10-17T09:40:00.122Z,6.9
2022-10-17T09:45:00.098Z,6.4
2022-10-17T09:50:00.118Z,6.4
2022-10-17T09:55:00.189Z,6.1
2022-10-17T10:00:00.206Z,7.4
2022-10-17T10:05:04.022Z,8.2
2022-10-17T10:10:00.138Z,5.7
2022-10-17T10:15:00.116Z,6.8
2022-10-17T10:20:00.130Z,6.8
2022-10-17T10:25:00.122Z,10.4
2022-10-17T10:30:00.140Z,6.9
2022-10-17T10:35:00.133Z,6.2
2022-10-17T10:40:00.139Z,7
2022-10-17T10:45:00.137Z,5.4
2022-10-17T10:50:00.140Z,5.4
2022-10-17T10:55:00.137Z,6.1
2022-10-17T11:00:00.115Z,7
2022-10-17T11:05:00.112Z,4.6
2022-10-17T11:10:00.144Z,6.1
2022-10-17T11:15:00.107Z,3.7
2022-10-17T11:20:00.109Z,3.7
2022-10-17T11:25:00.157Z,6
2022-10-17T11:30:00.125Z,4
2022-10-17T11:35:00.132Z,6.7
2022-10-17T11:40:00.140Z,5.2
2022-10-17T11:45:00.120Z,3.5
2022-10-17T11:51:59.486Z,3.5
2022-10-17T11:55:00.161Z,3.9
2022-10-17T12:00:00.132Z,4.6
2022-10-17T12:05:00.112Z,3.8
2022-10-17T12:10:00.131Z,3.6
2022-10-17T12:15:00.106Z,4.2
2022-10-17T12:20:00.123Z,4.2
2022-10-17T12:25:00.121Z,4.7
2022-10-17T12:30:00.125Z,4.4
2022-10-17T12:35:01.156Z,6.7
2022-10-17T12:40:00.235Z,7.4
2022-10-17T12:45:00.122Z,5.6
2022-10-17T12:50:00.111Z,5.6
2022-10-17T12:55:10.767Z,4.3
2022-10-17T13:00:00.119Z,6.8
2022-10-17T13:05:00.114Z,5.9
2022-10-17T13:10:00.110Z,6.5
2022-10-17T13:15:00.143Z,4.5
2022-10-17T13:20:00.124Z,4.5
2022-10-17T13:25:00.126Z,6.2
2022-10-17T13:30:00.132Z,4.5
2022-10-17T13:35:00.102Z,3.4
2022-10-17T13:40:06.938Z,3.7
2022-10-17T13:45:00.110Z,6.4
2022-10-17T13:50:00.117Z,6.4
2022-10-17T13:55:00.140Z,3.7
2022-10-17T14:00:00.103Z,4
2022-10-17T14:05:29.660Z,3.9
2022-10-17T14:10:00.129Z,3
2022-10-17T14:15:15.475Z,5.6
2022-10-17T14:20:16.359Z,5.6
2022-10-17T14:25:02.417Z,5
2022-10-17T14:30:00.110Z,6.4
2022-10-17T14:35:16.481Z,3.5
2022-10-17T14:40:00.134Z,6.2
2022-10-17T14:45:00.103Z,5.2
2022-10-17T14:50:00.113Z,5.2
2022-10-17T14:55:00.136Z,5
2022-10-17T15:00:00.126Z,3.5
2022-10-17T15:05:00.114Z,6.5
2022-10-17T15:10:00.145Z,5.9
2022-10-17T15:15:00.111Z,5.4
2022-10-17T15:20:00.125Z,5.4
2022-10-17T15:25:00.134Z,3.2
2022-10-17T15:30:00.127Z,3.5
2022-10-17T15:35:00.107Z,6.7
2022-10-17T15:40:00.113Z,4.9
2022-10-17T15:45:00.174Z,5.3
2022-10-17T15:50:00.121Z,5.3
2022-10-17T15:55:02.362Z,8.3
2022-10-17T16:00:00.109Z,4.2
2022-10-17T16:05:00.112Z,8.8
2022-10-17T16:10:00.147Z,9.8
2022-10-17T16:15:00.109Z,6.9
2022-10-17T16:20:00.132Z,6.9
2022-10-17T16:25:00.117Z,6
2022-10-17T16:30:00.108Z,8.6
2022-10-17T16:35:00.118Z,10.3
2022-10-17T16:40:00.152Z,6.4
2022-10-17T16:45:00.126Z,7.3
2022-10-17T16:50:00.121Z,7.3
2022-10-17T16:55:00.101Z,14.6
2022-10-17T17:00:00.123Z,12.8
2022-10-17T17:05:00.104Z,9.3
2022-10-17T17:10:00.133Z,7.1
2022-10-17T17:15:00.124Z,7.6
2022-10-17T17:20:00.131Z,7.6
2022-10-17T17:25:00.148Z,11.4
2022-10-17T17:30:00.121Z,12.7
2022-10-17T17:35:00.112Z,13.5
2022-10-17T17:40:00.152Z,11.7
2022-10-17T17:45:00.117Z,14.8
2022-10-17T17:50:00.111Z,14.8
2022-10-17T17:55:00.112Z,11.9
2022-10-17T18:00:00.110Z,12.9
2022-10-17T18:05:00.119Z,22.8
2022-10-17T18:10:00.207Z,17.8
2022-10-17T18:15:00.114Z,23.9
2022-10-17T18:20:00.133Z,23.9
2022-10-17T18:25:00.128Z,18.1
2022-10-17T18:30:00.123Z,11.8
2022-10-17T18:35:00.113Z,21.1
2022-10-17T18:40:00.132Z,13.5
2022-10-17T18:45:00.118Z,13
2022-10-17T18:50:00.123Z,13
2022-10-17T18:55:00.123Z,17.5
2022-10-17T19:00:00.114Z,20.5
2022-10-17T19:05:00.126Z,16.3
2022-10-17T19:10:00.137Z,26
2022-10-17T19:15:00.102Z,15.2
2022-10-17T19:20:00.116Z,15.2
2022-10-17T19:25:00.135Z,23
2022-10-17T19:30:00.119Z,17.6
2022-10-17T19:35:00.113Z,13.2
2022-10-17T19:40:00.257Z,17.8
2022-10-17T19:45:00.130Z,15.6
2022-10-17T19:50:00.201Z,15.6
2022-10-17T19:55:00.122Z,14.7
2022-10-17T20:00:00.106Z,12.4
2022-10-17T20:05:17.387Z,16
2022-10-17T20:10:00.122Z,17.8
2022-10-17T20:15:00.111Z,19.4
2022-10-17T20:20:01.363Z,19.4
2022-10-17T20:25:00.119Z,15.9
2022-10-17T20:30:00.117Z,17.5
2022-10-17T20:35:00.127Z,16.1
2022-10-17T20:40:22.974Z,14.7
2022-10-17T20:45:00.156Z,15.8
2022-10-17T20:50:00.121Z,15.8
2022-10-17T20:55:00.128Z,15.6
2022-10-17T21:00:00.164Z,14
2022-10-17T21:05:00.111Z,11
2022-10-17T21:10:07.590Z,12.9
2022-10-17T21:15:00.128Z,19.6
2022-10-17T21:20:00.107Z,19.6
2022-10-17T21:25:00.120Z,11.7
2022-10-17T21:30:00.213Z,16.2
2022-10-17T21:35:00.113Z,15.6
2022-10-17T21:40:00.125Z,17
2022-10-17T21:45:00.123Z,21
2022-10-17T21:50:00.120Z,21
2022-10-17T21:55:00.125Z,15.9
2022-10-17T22:00:00.121Z,17.4
2022-10-17T22:05:00.121Z,15.7
2022-10-17T22:10:00.202Z,13.2
2022-10-17T22:15:00.207Z,21.7
2022-10-17T22:20:00.129Z,21.7
2022-10-17T22:25:00.136Z,20
2022-10-17T22:30:00.123Z,14.2
2022-10-17T22:35:00.137Z,14.9
2022-10-17T22:40:00.120Z,15.6
2022-10-17T22:45:00.105Z,14.2
2022-10-17T22:50:00.133Z,14.2
2022-10-17T22:55:00.155Z,15.9
2022-10-17T23:00:00.112Z,12.1
2022-10-17T23:05:00.117Z,18.4
2022-10-17T23:10:00.143Z,14.7
2022-10-17T23:15:00.123Z,19.6
2022-10-17T23:20:00.117Z,19.6
2022-10-17T23:25:00.137Z,18.4
2022-10-17T23:30:00.131Z,16.5
2022-10-17T23:35:00.117Z,15
2022-10-17T23:40:00.138Z,13.4
2022-10-17T23:45:00.133Z,17.6
2022-10-17T23:50:00.144Z,17.6
2022-10-17T23:55:00.123Z,13.2
